Time;durP1;ratioP1;P1;durP2;ratioP2;P2;SDS_P1;SDS_P2;PMS_P1;PMS_P2;Temp;Humidity;BMP_temperature;BMP_pressure;BME280_temperature;BME280_humidity;BME280_pressure;Samples;Min_cycle;Max_cycle;Signal;HPM_P1;HPM_P2
2021/05/06 00:01:52;;;;;;;22.65;21.05;;;;;;;;;;5132680;28;20618;-78
2021/05/06 00:10:42;;;;;;;21.70;20.30;;;;;;;;;;5126675;28;20201;-78
2021/05/06 00:32:34;;;;;;;21.17;19.98;;;;;;;;;;5120275;28;20531;-78
2021/05/06 00:35:02;;;;;;;22.20;20.70;;;;;;;;;;5122940;28;20216;-79
2021/05/06 00:37:31;;;;;;;23.17;21.52;;;;;;;;;;5127391;28;20183;-78
2021/05/06 00:40:01;;;;;;;22.25;20.75;;;;;;;;;;5119895;28;20188;-78
2021/05/06 01:01:53;;;;;;;22.02;20.50;;;;;;;;;;5121078;28;20186;-79
2021/05/06 01:04:40;;;;;;;22.92;21.02;;;;;;;;;;5121533;28;20191;-79
2021/05/06 01:07:21;;;;;;;22.95;21.15;;;;;;;;;;5123423;28;20231;-79
2021/05/06 01:09:56;;;;;;;23.25;21.63;;;;;;;;;;5122785;28;20189;-79
2021/05/06 01:12:23;;;;;;;23.15;21.50;;;;;;;;;;5120249;28;20595;-79
2021/05/06 01:14:50;;;;;;;22.85;21.30;;;;;;;;;;5118821;28;20187;-79
2021/05/06 01:17:17;;;;;;;24.65;22.23;;;;;;;;;;5118188;28;20191;-78
2021/05/06 01:19:44;;;;;;;22.23;20.55;;;;;;;;;;5119523;28;20187;-78
2021/05/06 01:22:12;;;;;;;22.23;20.58;;;;;;;;;;5118744;28;20241;-78
2021/05/06 01:24:39;;;;;;;22.63;20.73;;;;;;;;;;5118563;28;20268;-79
2021/05/06 01:27:10;;;;;;;21.95;20.35;;;;;;;;;;5120253;28;20711;-79
2021/05/06 01:29:41;;;;;;;22.92;21.52;;;;;;;;;;5123807;28;20195;-79
2021/05/06 01:32:18;;;;;;;20.95;19.75;;;;;;;;;;5127039;28;20229;-78
2021/05/06 01:34:48;;;;;;;21.85;20.55;;;;;;;;;;5126018;28;20282;-79
2021/05/06 01:37:21;;;;;;;22.50;20.88;;;;;;;;;;5107704;28;20205;-78
2021/05/06 01:40:10;;;;;;;22.33;20.80;;;;;;;;;;5126105;28;20670;-79
2021/05/06 01:42:38;;;;;;;22.67;21.00;;;;;;;;;;5125840;28;20637;-79
2021/05/06 01:48:04;;;;;;;22.88;21.20;;;;;;;;;;5110948;28;20283;-79
2021/05/06 01:59:09;;;;;;;24.08;22.38;;;;;;;;;;4957838;28;20277;-79
2021/05/06 02:01:36;;;;;;;24.67;22.77;;;;;;;;;;4983018;28;20199;-79
2021/05/06 02:04:04;;;;;;;23.92;22.00;;;;;;;;;;4983559;28;20226;-78
2021/05/06 02:06:30;;;;;;;27.02;25.08;;;;;;;;;;4981359;28;20193;-79
2021/05/06 02:08:59;;;;;;;24.73;22.92;;;;;;;;;;4988174;28;20232;-78
2021/05/06 02:11:26;;;;;;;24.90;23.25;;;;;;;;;;4988764;28;20208;-78
2021/05/06 02:13:55;;;;;;;25.63;23.95;;;;;;;;;;4987493;28;20201;-78
2021/05/06 02:16:32;;;;;;;23.63;22.02;;;;;;;;;;4987770;28;20208;-79
2021/05/06 02:18:59;;;;;;;27.83;25.48;;;;;;;;;;4987646;28;20302;-78
2021/05/06 02:21:26;;;;;;;26.30;24.27;;;;;;;;;;4987048;28;20295;-78
2021/05/06 02:23:53;;;;;;;24.63;23.05;;;;;;;;;;4987875;28;20204;-78
2021/05/06 02:26:21;;;;;;;24.88;23.27;;;;;;;;;;4991948;28;20196;-78
2021/05/06 02:28:48;;;;;;;25.85;23.75;;;;;;;;;;5003481;28;20289;-78
2021/05/06 02:31:15;;;;;;;25.20;23.60;;;;;;;;;;5113539;28;20256;-77
2021/05/06 02:33:42;;;;;;;25.50;23.80;;;;;;;;;;5128585;28;20286;-79
2021/05/06 02:36:09;;;;;;;24.92;22.95;;;;;;;;;;5129292;28;20660;-79
2021/05/06 02:38:36;;;;;;;23.70;22.20;;;;;;;;;;5129916;28;20188;-79
2021/05/06 02:41:03;;;;;;;24.23;22.75;;;;;;;;;;5131270;28;20199;-79
2021/05/06 02:43:31;;;;;;;25.67;23.92;;;;;;;;;;5112623;28;20201;-79
2021/05/06 02:45:58;;;;;;;25.20;23.45;;;;;;;;;;5129867;28;20196;-78
2021/05/06 02:48:27;;;;;;;24.77;23.05;;;;;;;;;;5129142;28;20212;-79
2021/05/06 02:50:57;;;;;;;24.52;22.90;;;;;;;;;;5129850;28;20192;-78
2021/05/06 02:53:26;;;;;;;24.20;22.55;;;;;;;;;;5129807;28;20626;-78
2021/05/06 02:56:01;;;;;;;26.08;24.30;;;;;;;;;;5131446;28;20606;-78
2021/05/06 02:58:44;;;;;;;24.60;22.90;;;;;;;;;;5130802;28;20207;-79
2021/05/06 03:04:01;;;;;;;25.35;23.58;;;;;;;;;;5134134;28;20194;-78
2021/05/06 03:06:31;;;;;;;27.02;25.27;;;;;;;;;;5134615;28;20555;-78
2021/05/06 03:09:00;;;;;;;26.13;24.45;;;;;;;;;;5133657;28;20295;-78
2021/05/06 03:11:40;;;;;;;25.65;23.70;;;;;;;;;;5134288;28;20188;-78
2021/05/06 03:14:27;;;;;;;26.45;24.52;;;;;;;;;;5132082;28;20557;-78
2021/05/06 03:22:42;;;;;;;26.63;24.50;;;;;;;;;;5125663;28;20647;-78
2021/05/06 03:25:12;;;;;;;26.63;24.73;;;;;;;;;;5123531;28;20658;-79
2021/05/06 03:27:44;;;;;;;27.60;25.35;;;;;;;;;;5124992;28;20297;-78
2021/05/06 03:30:27;;;;;;;26.95;24.95;;;;;;;;;;5124122;28;20544;-78
2021/05/06 03:34:35;;;;;;;26.10;24.35;;;;;;;;;;5123956;28;20203;-78
2021/05/06 03:36:09;;;;;;;29.13;26.77;;;;;;;;;;5126470;28;20238;-76
2021/05/06 03:41:41;;;;;;;29.00;26.70;;;;;;;;;;5125141;28;20610;-78
2021/05/06 03:44:27;;;;;;;28.50;26.27;;;;;;;;;;5126029;28;20192;-77
2021/05/06 03:50:05;;;;;;;30.27;27.63;;;;;;;;;;5111975;28;20196;-76
2021/05/06 04:17:34;;;;;;;31.73;29.08;;;;;;;;;;5053407;28;20605;-76
2021/05/06 04:25:49;;;;;;;35.50;32.50;;;;;;;;;;5052610;28;20224;-77
2021/05/06 04:31:09;;;;;;;33.35;30.65;;;;;;;;;;5020589;28;20201;-77
2021/05/06 04:36:27;;;;;;;36.55;33.55;;;;;;;;;;5053044;28;20277;-77
2021/05/06 04:38:55;;;;;;;35.45;32.33;;;;;;;;;;5035978;28;20259;-77
2021/05/06 04:41:34;;;;;;;36.05;32.67;;;;;;;;;;5052025;28;20549;-77
2021/05/06 04:55:06;;;;;;;34.50;31.65;;;;;;;;;;5114711;28;20749;-77
2021/05/06 04:58:01;;;;;;;37.08;33.92;;;;;;;;;;5114266;28;20231;-77
2021/05/06 05:03:37;;;;;;;37.08;33.55;;;;;;;;;;5113979;28;20265;-78
2021/05/06 05:06:03;;;;;;;38.35;35.05;;;;;;;;;;5113939;28;20238;-77
2021/05/06 05:08:35;;;;;;;38.25;35.00;;;;;;;;;;5114519;28;20333;-78
2021/05/06 05:11:21;;;;;;;37.88;34.85;;;;;;;;;;5114630;28;20196;-78
2021/05/06 05:19:37;;;;;;;35.08;32.17;;;;;;;;;;5041103;28;20209;-78
2021/05/06 05:24:56;;;;;;;37.60;34.10;;;;;;;;;;5052270;28;20277;-79
2021/05/06 05:27:24;;;;;;;37.97;34.70;;;;;;;;;;5052061;28;20696;-78
2021/05/06 05:29:51;;;;;;;37.65;34.20;;;;;;;;;;5051747;28;20211;-78
2021/05/06 05:32:18;;;;;;;38.33;35.15;;;;;;;;;;5051471;28;20326;-78
2021/05/06 05:34:48;;;;;;;39.72;36.17;;;;;;;;;;5051179;28;20232;-79
2021/05/06 05:37:18;;;;;;;39.05;35.80;;;;;;;;;;5052034;28;20706;-78
2021/05/06 05:39:57;;;;;;;39.33;35.97;;;;;;;;;;5051732;28;20206;-78
2021/05/06 05:42:37;;;;;;;39.78;35.83;;;;;;;;;;5051633;28;20210;-78
2021/05/06 05:48:43;;;;;;;36.88;33.72;;;;;;;;;;5051492;28;20220;-78
2021/05/06 05:56:32;;;;;;;37.97;34.05;;;;;;;;;;5113788;28;20561;-77
2021/05/06 05:59:00;;;;;;;71.22;39.42;;;;;;;;;;5114146;28;20188;-78
2021/05/06 06:01:28;;;;;;;39.55;36.03;;;;;;;;;;5114005;28;20184;-78
2021/05/06 06:03:55;;;;;;;38.33;35.10;;;;;;;;;;5114226;28;20267;-78
2021/05/06 06:06:22;;;;;;;39.85;36.25;;;;;;;;;;5113023;28;20200;-78
2021/05/06 06:08:49;;;;;;;37.53;34.30;;;;;;;;;;5113771;28;20219;-78
2021/05/06 06:11:16;;;;;;;39.78;36.20;;;;;;;;;;5114087;28;20191;-77
2021/05/06 06:13:45;;;;;;;36.40;33.30;;;;;;;;;;5113952;28;20193;-77
2021/05/06 06:16:21;;;;;;;39.20;35.75;;;;;;;;;;5117720;28;20190;-77
2021/05/06 06:18:50;;;;;;;37.65;34.45;;;;;;;;;;5117815;28;20278;-77
2021/05/06 06:21:20;;;;;;;39.00;35.50;;;;;;;;;;5117558;28;20637;-77
2021/05/06 06:23:47;;;;;;;37.38;34.38;;;;;;;;;;5117922;28;20189;-77
2021/05/06 06:26:14;;;;;;;38.00;34.50;;;;;;;;;;5117791;28;20204;-80
2021/05/06 06:28:43;;;;;;;36.60;33.40;;;;;;;;;;5099819;28;20233;-77
2021/05/06 06:31:15;;;;;;;40.53;37.03;;;;;;;;;;5118485;28;20188;-79
2021/05/06 06:33:43;;;;;;;38.78;35.60;;;;;;;;;;5117229;28;20301;-79
2021/05/06 06:36:10;;;;;;;36.00;33.15;;;;;;;;;;5120808;28;20276;-79
2021/05/06 06:38:37;;;;;;;34.42;31.63;;;;;;;;;;5117170;28;20187;-78
2021/05/06 06:41:06;;;;;;;34.42;31.67;;;;;;;;;;5117288;28;20191;-79
2021/05/06 06:43:32;;;;;;;35.17;32.45;;;;;;;;;;5117109;28;20244;-79
2021/05/06 06:46:00;;;;;;;33.10;30.58;;;;;;;;;;5117053;28;20184;-78
2021/05/06 06:48:27;;;;;;;34.15;31.55;;;;;;;;;;5117155;28;20576;-79
2021/05/06 06:50:55;;;;;;;32.22;29.73;;;;;;;;;;5117787;28;20620;-78
2021/05/06 06:53:21;;;;;;;31.77;29.42;;;;;;;;;;5117798;28;20634;-78
2021/05/06 06:55:49;;;;;;;31.88;29.45;;;;;;;;;;5117714;28;20193;-78
2021/05/06 06:58:17;;;;;;;33.97;31.48;;;;;;;;;;5117845;28;20192;-85
2021/05/06 07:00:44;;;;;;;34.47;31.90;;;;;;;;;;5117373;28;20188;-77
2021/05/06 07:03:12;;;;;;;32.25;29.70;;;;;;;;;;5117407;28;20204;-79
2021/05/06 07:05:40;;;;;;;33.58;30.95;;;;;;;;;;5118234;28;20204;-78
2021/05/06 07:08:15;;;;;;;34.08;31.00;;;;;;;;;;5121851;28;20240;-79
2021/05/06 07:10:43;;;;;;;31.80;29.23;;;;;;;;;;5117516;28;20192;-79
2021/05/06 07:13:10;;;;;;;34.15;31.35;;;;;;;;;;5117103;28;20541;-79
2021/05/06 07:15:37;;;;;;;32.40;29.90;;;;;;;;;;5098843;28;20724;-79
2021/05/06 07:18:07;;;;;;;30.33;28.13;;;;;;;;;;5099916;28;20201;-79
2021/05/06 07:20:34;;;;;;;31.42;29.02;;;;;;;;;;5117921;28;20199;-79
2021/05/06 07:23:02;;;;;;;31.60;29.15;;;;;;;;;;5117141;28;20184;-77
2021/05/06 07:25:30;;;;;;;32.70;30.30;;;;;;;;;;5117188;28;20549;-79
2021/05/06 07:27:57;;;;;;;30.75;28.27;;;;;;;;;;5119582;28;20213;-78
2021/05/06 07:30:24;;;;;;;32.20;29.90;;;;;;;;;;5100212;28;20673;-78
2021/05/06 07:32:51;;;;;;;32.55;30.05;;;;;;;;;;5119041;28;20223;-78
2021/05/06 07:35:18;;;;;;;32.28;29.90;;;;;;;;;;5118971;28;20284;-79
2021/05/06 07:37:44;;;;;;;32.58;30.20;;;;;;;;;;5118118;28;20690;-78
2021/05/06 07:40:12;;;;;;;33.30;30.70;;;;;;;;;;5117655;28;20184;-78
2021/05/06 07:42:40;;;;;;;32.80;30.42;;;;;;;;;;5099065;28;20204;-78
2021/05/06 07:45:08;;;;;;;32.58;30.10;;;;;;;;;;5105261;28;20670;-78
2021/05/06 07:47:36;;;;;;;32.30;29.95;;;;;;;;;;5123327;28;20223;-78
2021/05/06 07:50:03;;;;;;;39.15;36.25;;;;;;;;;;5124048;28;20188;-77
2021/05/06 07:52:30;;;;;;;31.27;28.95;;;;;;;;;;5122186;28;20187;-79
2021/05/06 07:54:57;;;;;;;32.05;29.65;;;;;;;;;;5103704;28;20205;-78
2021/05/06 07:57:24;;;;;;;33.20;30.60;;;;;;;;;;5122233;28;20526;-79
2021/05/06 07:59:52;;;;;;;33.78;31.27;;;;;;;;;;5121763;28;20200;-79
2021/05/06 08:02:20;;;;;;;31.15;28.75;;;;;;;;;;5121384;28;20541;-78
2021/05/06 08:04:47;;;;;;;29.45;27.45;;;;;;;;;;5103818;28;20184;-78
2021/05/06 08:07:14;;;;;;;31.27;29.08;;;;;;;;;;5120779;28;20243;-78
2021/05/06 08:09:41;;;;;;;32.03;29.83;;;;;;;;;;5115941;28;20192;-78
2021/05/06 08:12:08;;;;;;;31.23;28.95;;;;;;;;;;5116400;28;20219;-78
2021/05/06 08:14:35;;;;;;;33.75;31.45;;;;;;;;;;5115890;28;20706;-78
2021/05/06 08:17:04;;;;;;;39.60;36.45;;;;;;;;;;5116590;28;20188;-78
2021/05/06 08:19:32;;;;;;;33.40;30.48;;;;;;;;;;5115925;28;20545;-78
2021/05/06 08:21:59;;;;;;;34.20;31.60;;;;;;;;;;5115661;28;20274;-79
2021/05/06 08:24:26;;;;;;;32.20;29.60;;;;;;;;;;5115669;28;20190;-78
2021/05/06 08:26:53;;;;;;;31.08;28.88;;;;;;;;;;5117212;28;20591;-79
2021/05/06 08:29:21;;;;;;;30.58;28.20;;;;;;;;;;5117097;28;20259;-78
2021/05/06 08:31:48;;;;;;;30.52;28.33;;;;;;;;;;5115934;28;20200;-78
2021/05/06 08:34:16;;;;;;;28.83;26.73;;;;;;;;;;5116404;28;20216;-80
2021/05/06 08:36:43;;;;;;;30.95;28.60;;;;;;;;;;5115039;28;20197;-78
2021/05/06 08:39:10;;;;;;;30.67;28.58;;;;;;;;;;5114601;28;20200;-78
2021/05/06 08:41:37;;;;;;;31.80;29.35;;;;;;;;;;5114772;28;20555;-79
2021/05/06 08:44:05;;;;;;;28.10;26.10;;;;;;;;;;5097771;28;20262;-78
2021/05/06 08:46:34;;;;;;;29.40;27.35;;;;;;;;;;5114901;28;20193;-78
2021/05/06 08:49:02;;;;;;;31.08;28.77;;;;;;;;;;5114298;28;20220;-78
2021/05/06 08:51:30;;;;;;;28.87;26.87;;;;;;;;;;5114728;28;20200;-77
2021/05/06 08:53:59;;;;;;;29.63;27.45;;;;;;;;;;5115968;28;20940;-79
2021/05/06 08:56:26;;;;;;;30.23;28.02;;;;;;;;;;5098411;28;20188;-78
2021/05/06 08:58:53;;;;;;;32.97;30.48;;;;;;;;;;5114833;28;20258;-78
2021/05/06 09:01:19;;;;;;;29.48;27.48;;;;;;;;;;5115301;28;20253;-78
2021/05/06 09:03:47;;;;;;;30.35;28.10;;;;;;;;;;5121818;28;20190;-77
2021/05/06 09:06:18;;;;;;;29.70;27.70;;;;;;;;;;5105246;28;20224;-77
2021/05/06 09:08:46;;;;;;;29.58;27.48;;;;;;;;;;5075763;28;20684;-77
2021/05/06 09:11:14;;;;;;;30.35;28.35;;;;;;;;;;5076534;28;20198;-77
2021/05/06 09:13:41;;;;;;;30.53;28.43;;;;;;;;;;5078993;28;20192;-77
2021/05/06 09:16:09;;;;;;;28.10;26.20;;;;;;;;;;5077681;28;20931;-78
2021/05/06 09:18:40;;;;;;;29.02;27.08;;;;;;;;;;5078090;28;20183;-78
2021/05/06 09:21:09;;;;;;;30.38;27.98;;;;;;;;;;5076876;28;20201;-78
2021/05/06 09:23:36;;;;;;;31.70;29.20;;;;;;;;;;5079290;28;20216;-77
2021/05/06 09:26:05;;;;;;;30.70;28.08;;;;;;;;;;5084097;28;20411;-77
2021/05/06 09:28:33;;;;;;;29.70;27.27;;;;;;;;;;5085041;28;20221;-78
2021/05/06 09:31:01;;;;;;;30.90;28.60;;;;;;;;;;5081960;28;20419;-78
2021/05/06 09:33:32;;;;;;;29.42;27.23;;;;;;;;;;5085270;28;20448;-78
2021/05/06 09:35:59;;;;;;;30.73;28.53;;;;;;;;;;5084972;28;20626;-77
2021/05/06 09:38:28;;;;;;;30.92;28.63;;;;;;;;;;5081419;28;20422;-90
2021/05/06 09:40:55;;;;;;;31.17;28.58;;;;;;;;;;5084667;28;20278;-82
2021/05/06 09:43:27;;;;;;;30.65;28.52;;;;;;;;;;5086678;28;20198;-81
2021/05/06 09:45:54;;;;;;;30.63;28.33;;;;;;;;;;5087164;28;20249;-81
2021/05/06 09:48:22;;;;;;;30.57;28.37;;;;;;;;;;5085840;28;20221;-81
2021/05/06 09:50:50;;;;;;;29.37;27.27;;;;;;;;;;5084892;28;20425;-82
2021/05/06 09:53:18;;;;;;;26.10;24.30;;;;;;;;;;5081181;28;20415;-82
2021/05/06 09:55:47;;;;;;;27.30;25.27;;;;;;;;;;5079640;28;20456;-82
2021/05/06 09:58:14;;;;;;;26.80;25.00;;;;;;;;;;5078603;28;20203;-82
2021/05/06 10:00:42;;;;;;;27.73;25.83;;;;;;;;;;5078245;28;20437;-81
2021/05/06 10:03:13;;;;;;;29.02;26.83;;;;;;;;;;5078206;28;20521;-81
2021/05/06 10:05:40;;;;;;;26.38;24.77;;;;;;;;;;5079110;28;20195;-94
2021/05/06 10:08:08;;;;;;;29.63;27.35;;;;;;;;;;5093986;28;20233;-87
2021/05/06 10:10:36;;;;;;;26.60;24.90;;;;;;;;;;5096146;28;20250;-82
2021/05/06 10:13:04;;;;;;;27.83;26.05;;;;;;;;;;5098476;28;20419;-84
2021/05/06 10:15:31;;;;;;;26.88;25.08;;;;;;;;;;5097121;28;20206;-82
2021/05/06 10:17:59;;;;;;;27.97;25.97;;;;;;;;;;5097335;28;20219;-82
2021/05/06 10:20:27;;;;;;;26.55;24.85;;;;;;;;;;5099212;28;20426;-83
2021/05/06 10:22:54;;;;;;;27.73;25.83;;;;;;;;;;5100841;28;20527;-83
2021/05/06 10:25:22;;;;;;;25.53;23.90;;;;;;;;;;5098716;28;20199;-87
2021/05/06 10:27:49;;;;;;;27.20;25.40;;;;;;;;;;5099530;28;20480;-86
2021/05/06 10:30:17;;;;;;;26.43;24.73;;;;;;;;;;5102041;28;20451;-86
2021/05/06 10:32:45;;;;;;;27.38;25.38;;;;;;;;;;5108057;28;20724;-85
2021/05/06 10:35:14;;;;;;;26.58;24.88;;;;;;;;;;5100696;28;20194;-85
2021/05/06 10:37:42;;;;;;;27.05;24.90;;;;;;;;;;5101674;28;20571;-86
2021/05/06 10:40:25;;;;;;;26.50;24.80;;;;;;;;;;5100785;28;20562;-86
2021/05/06 10:42:53;;;;;;;26.02;24.40;;;;;;;;;;5100809;28;20238;-86
2021/05/06 10:45:33;;;;;;;27.10;25.10;;;;;;;;;;5101830;28;20199;-88
2021/05/06 10:48:00;;;;;;;28.77;26.87;;;;;;;;;;5101132;28;20488;-85
2021/05/06 10:50:38;;;;;;;27.83;26.00;;;;;;;;;;5101197;28;20926;-86
2021/05/06 10:53:07;;;;;;;28.30;26.60;;;;;;;;;;5103238;28;20445;-87
2021/05/06 10:55:56;;;;;;;27.03;25.33;;;;;;;;;;5117758;28;20415;-89
2021/05/06 10:58:33;;;;;;;28.13;26.33;;;;;;;;;;5116068;28;20479;-85
2021/05/06 11:01:09;;;;;;;28.23;26.33;;;;;;;;;;5118898;28;20429;-86
2021/05/06 11:03:36;;;;;;;28.47;26.60;;;;;;;;;;5110263;28;20429;-85
2021/05/06 11:06:05;;;;;;;30.07;27.97;;;;;;;;;;5099284;28;20454;-78
2021/05/06 11:08:34;;;;;;;28.83;26.93;;;;;;;;;;5118725;28;20492;-85
2021/05/06 11:11:22;;;;;;;30.87;28.83;;;;;;;;;;5118848;28;20446;-85
2021/05/06 11:14:05;;;;;;;29.13;27.27;;;;;;;;;;5113074;28;20427;-79
2021/05/06 11:16:32;;;;;;;28.77;26.77;;;;;;;;;;5114985;28;20433;-80
2021/05/06 11:19:00;;;;;;;28.93;26.93;;;;;;;;;;5098638;28;20450;-78
2021/05/06 11:21:45;;;;;;;29.40;27.53;;;;;;;;;;5116284;28;20419;-79
2021/05/06 11:24:13;;;;;;;28.57;26.80;;;;;;;;;;5115277;28;20466;-79
2021/05/06 11:26:55;;;;;;;28.90;27.10;;;;;;;;;;5115973;28;20879;-79
2021/05/06 11:29:28;;;;;;;26.60;24.90;;;;;;;;;;5112828;28;20470;-79
2021/05/06 11:31:55;;;;;;;29.20;27.30;;;;;;;;;;5116073;28;20427;-85
2021/05/06 11:34:42;;;;;;;27.73;26.00;;;;;;;;;;5117224;28;20851;-79
2021/05/06 11:37:19;;;;;;;29.33;27.33;;;;;;;;;;5129378;28;20474;-79
2021/05/06 11:39:48;;;;;;;28.33;26.63;;;;;;;;;;5129664;28;20426;-81
2021/05/06 11:42:15;;;;;;;27.37;25.77;;;;;;;;;;5128781;28;20415;-82
2021/05/06 11:44:42;;;;;;;29.03;27.13;;;;;;;;;;5129801;28;20454;-93
2021/05/06 11:47:09;;;;;;;28.07;26.17;;;;;;;;;;5130386;28;20419;-78
2021/05/06 11:49:36;;;;;;;27.80;26.03;;;;;;;;;;5128437;28;20451;-79
2021/05/06 11:52:03;;;;;;;30.43;28.03;;;;;;;;;;5127405;28;20879;-79
2021/05/06 11:54:30;;;;;;;27.17;25.47;;;;;;;;;;5127674;28;20427;-79
2021/05/06 11:57:00;;;;;;;27.93;26.07;;;;;;;;;;5126086;28;20428;-81
2021/05/06 11:59:28;;;;;;;29.10;27.10;;;;;;;;;;5130599;28;20438;-80
2021/05/06 12:01:57;;;;;;;30.80;28.57;;;;;;;;;;5130262;28;20410;-79
2021/05/06 12:04:25;;;;;;;29.20;27.23;;;;;;;;;;5131672;28;20410;-79
2021/05/06 12:06:52;;;;;;;28.27;26.40;;;;;;;;;;5126458;28;20450;-79
2021/05/06 12:09:23;;;;;;;28.77;26.97;;;;;;;;;;5125730;28;20457;-79
2021/05/06 12:11:50;;;;;;;29.00;27.10;;;;;;;;;;5125697;28;20471;-79
2021/05/06 12:14:29;;;;;;;25.87;24.17;;;;;;;;;;5125121;28;20448;-80
2021/05/06 12:16:55;;;;;;;26.17;24.57;;;;;;;;;;5120942;28;20405;-80
2021/05/06 12:19:22;;;;;;;26.00;24.30;;;;;;;;;;5121518;28;20439;-79
2021/05/06 12:21:51;;;;;;;28.43;26.53;;;;;;;;;;5123907;28;20422;-79
2021/05/06 12:24:26;;;;;;;26.77;25.10;;;;;;;;;;5126406;28;20435;-79
2021/05/06 12:26:53;;;;;;;28.43;26.63;;;;;;;;;;5127623;28;20567;-90
2021/05/06 12:29:22;;;;;;;29.57;27.57;;;;;;;;;;5112458;28;20454;-83
2021/05/06 12:31:50;;;;;;;28.67;26.87;;;;;;;;;;5114364;28;20477;-86
2021/05/06 12:34:18;;;;;;;29.83;27.93;;;;;;;;;;5133971;28;20446;-86
2021/05/06 12:36:58;;;;;;;28.70;27.00;;;;;;;;;;5134224;28;20439;-80
2021/05/06 12:39:26;;;;;;;28.30;26.60;;;;;;;;;;5132170;28;20489;-79
2021/05/06 12:41:55;;;;;;;28.57;26.80;;;;;;;;;;5132974;28;20419;-79
2021/05/06 12:44:39;;;;;;;29.77;27.87;;;;;;;;;;5130728;28;20444;-79
2021/05/06 12:47:13;;;;;;;28.60;26.90;;;;;;;;;;5130305;28;20425;-79
2021/05/06 12:49:40;;;;;;;30.17;28.37;;;;;;;;;;5127777;28;20463;-79
2021/05/06 12:52:07;;;;;;;29.60;27.57;;;;;;;;;;5128311;28;20483;-78
2021/05/06 12:54:35;;;;;;;31.13;29.03;;;;;;;;;;5126728;28;20419;-78
2021/05/06 12:57:14;;;;;;;31.00;28.90;;;;;;;;;;5126988;28;20436;-79
2021/05/06 12:59:48;;;;;;;32.97;30.77;;;;;;;;;;5126987;28;20415;-79
2021/05/06 13:02:15;;;;;;;31.40;29.00;;;;;;;;;;5126791;28;20444;-83
2021/05/06 13:04:46;;;;;;;28.57;26.77;;;;;;;;;;5127610;28;20763;-93
2021/05/06 13:07:13;;;;;;;30.23;28.13;;;;;;;;;;5127186;28;20475;-82
2021/05/06 13:09:41;;;;;;;32.10;30.00;;;;;;;;;;5126632;28;20487;-91
2021/05/06 13:12:15;;;;;;;29.93;27.93;;;;;;;;;;5130791;28;20459;-93
2021/05/06 13:14:51;;;;;;;30.00;28.20;;;;;;;;;;5111836;28;20428;-89
2021/05/06 13:17:25;;;;;;;30.83;28.83;;;;;;;;;;5128509;28;20454;-94
2021/05/06 13:19:52;;;;;;;31.67;29.73;;;;;;;;;;5131381;28;20442;-92
2021/05/06 13:22:19;;;;;;;32.30;30.20;;;;;;;;;;5126026;28;20788;-92
2021/05/06 13:24:49;;;;;;;30.00;28.00;;;;;;;;;;5101664;28;20447;-91
2021/05/06 13:27:16;;;;;;;31.27;29.27;;;;;;;;;;5121500;28;20421;-90
2021/05/06 13:30:04;;;;;;;31.00;29.00;;;;;;;;;;5120564;28;20486;-84
2021/05/06 13:32:32;;;;;;;30.33;28.40;;;;;;;;;;5118682;28;20505;-83
2021/05/06 13:34:59;;;;;;;30.57;28.40;;;;;;;;;;5129698;28;20429;-83
2021/05/06 13:37:34;;;;;;;32.17;29.97;;;;;;;;;;5134215;28;20413;-83
2021/05/06 13:40:01;;;;;;;32.40;30.03;;;;;;;;;;5131661;28;20433;-83
2021/05/06 13:42:28;;;;;;;32.67;30.47;;;;;;;;;;5130516;28;20435;-83
2021/05/06 13:44:57;;;;;;;32.47;30.27;;;;;;;;;;5133953;28;20410;-83
2021/05/06 13:47:24;;;;;;;32.17;30.10;;;;;;;;;;5132360;28;20406;-84
2021/05/06 13:49:52;;;;;;;32.23;30.10;;;;;;;;;;5128863;28;20535;-83
2021/05/06 13:52:20;;;;;;;34.67;32.17;;;;;;;;;;5131155;28;20896;-83
2021/05/06 13:54:47;;;;;;;31.70;29.77;;;;;;;;;;5109637;28;20447;-85
2021/05/06 13:57:14;;;;;;;31.80;29.60;;;;;;;;;;5128306;28;20790;-85
2021/05/06 13:59:40;;;;;;;31.93;29.63;;;;;;;;;;5129554;28;20446;-84
2021/05/06 14:02:09;;;;;;;32.93;30.63;;;;;;;;;;5128394;28;20422;-85
2021/05/06 14:04:37;;;;;;;32.87;30.77;;;;;;;;;;5130180;28;20435;-76
2021/05/06 14:07:06;;;;;;;30.73;28.83;;;;;;;;;;5127519;28;20543;-78
2021/05/06 14:09:33;;;;;;;32.17;29.80;;;;;;;;;;5130774;28;20567;-87
2021/05/06 14:12:00;;;;;;;32.73;30.57;;;;;;;;;;5132877;28;20442;-86
2021/05/06 14:14:27;;;;;;;32.70;30.30;;;;;;;;;;5131093;28;20445;-87
2021/05/06 14:16:54;;;;;;;32.07;29.97;;;;;;;;;;5132249;28;20436;-87
2021/05/06 14:19:22;;;;;;;31.50;29.60;;;;;;;;;;5129616;28;20434;-86
2021/05/06 14:21:51;;;;;;;32.20;30.00;;;;;;;;;;5119597;28;20444;-86
2021/05/06 14:24:18;;;;;;;31.83;29.73;;;;;;;;;;5121432;28;20906;-87
2021/05/06 14:26:48;;;;;;;32.27;30.23;;;;;;;;;;5131489;28;20905;-87
2021/05/06 14:29:16;;;;;;;30.30;28.43;;;;;;;;;;5129711;28;20475;-88
2021/05/06 14:31:42;;;;;;;30.70;28.70;;;;;;;;;;5129328;28;20490;-86
2021/05/06 14:34:09;;;;;;;30.70;28.80;;;;;;;;;;5129445;28;20467;-87
2021/05/06 14:36:37;;;;;;;32.37;30.27;;;;;;;;;;5130250;28;20407;-87
2021/05/06 14:39:05;;;;;;;32.00;30.10;;;;;;;;;;5130409;28;20423;-88
2021/05/06 14:41:33;;;;;;;32.53;30.50;;;;;;;;;;5129065;28;20447;-87
2021/05/06 14:44:00;;;;;;;31.90;30.00;;;;;;;;;;5131195;28;20425;-87
2021/05/06 14:46:27;;;;;;;30.63;28.83;;;;;;;;;;5132129;28;20507;-87
2021/05/06 14:48:54;;;;;;;31.50;29.40;;;;;;;;;;5129706;28;20499;-88
2021/05/06 14:51:21;;;;;;;30.47;28.57;;;;;;;;;;5129580;28;20505;-87
2021/05/06 14:53:49;;;;;;;31.13;29.13;;;;;;;;;;5130377;28;20444;-87
2021/05/06 14:56:16;;;;;;;31.63;29.73;;;;;;;;;;5129803;28;20470;-87
2021/05/06 14:58:43;;;;;;;31.13;29.13;;;;;;;;;;5127817;28;20422;-87
2021/05/06 15:01:10;;;;;;;29.35;27.55;;;;;;;;;;5131664;28;20399;-87
2021/05/06 15:03:37;;;;;;;30.73;28.83;;;;;;;;;;5134258;28;20216;-87
2021/05/06 15:06:04;;;;;;;31.57;29.57;;;;;;;;;;5127725;28;20891;-86
2021/05/06 15:08:31;;;;;;;32.03;30.00;;;;;;;;;;5130108;28;20458;-86
2021/05/06 15:10:58;;;;;;;31.43;29.57;;;;;;;;;;5126711;28;20432;-86
2021/05/06 15:13:26;;;;;;;32.47;30.37;;;;;;;;;;5125922;28;20402;-88
2021/05/06 15:15:53;;;;;;;32.03;30.07;;;;;;;;;;5123475;28;20869;-87
2021/05/06 15:18:20;;;;;;;31.27;29.47;;;;;;;;;;5121406;28;20422;-86
2021/05/06 15:20:47;;;;;;;30.57;28.73;;;;;;;;;;5105806;28;20510;-87
2021/05/06 15:23:14;;;;;;;29.67;27.77;;;;;;;;;;5122820;28;20532;-88
2021/05/06 15:25:41;;;;;;;29.30;27.40;;;;;;;;;;5122959;28;20444;-86
2021/05/06 15:28:12;;;;;;;29.97;28.17;;;;;;;;;;5125362;28;20426;-87
2021/05/06 15:30:39;;;;;;;30.10;28.30;;;;;;;;;;5130877;28;20467;-88
2021/05/06 15:33:06;;;;;;;30.60;28.70;;;;;;;;;;5110448;28;20442;-88
2021/05/06 15:35:33;;;;;;;30.33;28.43;;;;;;;;;;5130536;28;20451;-88
2021/05/06 15:38:00;;;;;;;30.23;28.43;;;;;;;;;;5130026;28;20462;-78
2021/05/06 15:40:27;;;;;;;31.37;29.53;;;;;;;;;;5117124;28;20401;-87
2021/05/06 15:42:54;;;;;;;31.37;29.67;;;;;;;;;;5122382;28;20431;-88
2021/05/06 15:45:22;;;;;;;29.70;27.70;;;;;;;;;;5120583;28;20455;-83
2021/05/06 15:47:49;;;;;;;29.77;27.97;;;;;;;;;;5118654;28;20415;-84
2021/05/06 15:50:16;;;;;;;31.43;29.63;;;;;;;;;;5118269;28;21016;-85
2021/05/06 15:52:44;;;;;;;29.90;28.10;;;;;;;;;;5125026;28;20412;-86
2021/05/06 15:55:13;;;;;;;30.10;28.30;;;;;;;;;;5120325;28;20806;-86
2021/05/06 15:57:43;;;;;;;30.30;28.40;;;;;;;;;;5103326;28;20470;-87
2021/05/06 16:00:11;;;;;;;29.03;27.33;;;;;;;;;;5120896;28;20501;-85
2021/05/06 16:02:41;;;;;;;30.87;29.07;;;;;;;;;;5121531;28;20430;-83
2021/05/06 16:05:14;;;;;;;28.60;26.90;;;;;;;;;;5101690;28;20415;-85
2021/05/06 16:07:41;;;;;;;27.77;26.07;;;;;;;;;;5119680;28;20637;-86
2021/05/06 16:10:08;;;;;;;28.90;27.30;;;;;;;;;;5121209;28;20531;-86
2021/05/06 16:12:35;;;;;;;27.20;25.60;;;;;;;;;;5118202;28;20407;-85
2021/05/06 16:15:02;;;;;;;28.27;26.67;;;;;;;;;;5122636;28;20407;-84
2021/05/06 16:17:31;;;;;;;28.20;26.60;;;;;;;;;;5119397;28;20489;-85
2021/05/06 16:19:59;;;;;;;27.47;25.90;;;;;;;;;;5118181;28;20447;-84
2021/05/06 16:22:26;;;;;;;28.50;26.90;;;;;;;;;;5117983;28;20515;-85
2021/05/06 16:24:53;;;;;;;27.93;26.37;;;;;;;;;;5117843;28;20410;-85
2021/05/06 16:27:20;;;;;;;26.23;24.73;;;;;;;;;;5117629;28;20460;-85
2021/05/06 16:29:47;;;;;;;27.50;26.00;;;;;;;;;;5117633;28;20459;-85
2021/05/06 16:32:14;;;;;;;27.20;25.70;;;;;;;;;;5117504;28;20423;-86
2021/05/06 16:34:42;;;;;;;27.47;25.90;;;;;;;;;;5118883;28;20407;-85
2021/05/06 16:37:15;;;;;;;27.10;25.53;;;;;;;;;;5118235;28;20505;-82
2021/05/06 16:39:51;;;;;;;26.43;24.93;;;;;;;;;;5123034;28;20476;-86
2021/05/06 16:42:30;;;;;;;27.40;25.90;;;;;;;;;;5120604;28;20779;-84
2021/05/06 16:44:57;;;;;;;26.87;25.27;;;;;;;;;;5119766;28;20428;-84
2021/05/06 16:47:24;;;;;;;28.53;26.70;;;;;;;;;;5120509;28;20511;-85
2021/05/06 16:49:51;;;;;;;29.07;27.37;;;;;;;;;;5120648;28;20555;-84